Dormentes, Brazil
Current Conditions -  °F | °C
As of 8:00 PM on Thursday 27 Nov 2014 (Local Time) from SBPL Reporting Station
Clear Clear  
Wind Chill: 88°   Ceiling: Unl
Heat Index: 88°   Visibility: 6mi
Dew Point: 63°   Wind: 7mph
Humidity: 43%   Direction: 160°SSE
Pressure: 29.88"   Gusts: NA
Location:  8.45°S, 40.77°W
Report Text: SBPL 272300Z 16006KT CAVOK 31/17 Q1012
Loading
Personal Weather Stations






























Interactive Weather Map New forecast layout! Learn more

10-Day Weather Forecast

Advertisements
Track Severe Weather on mobile